Time;durP1;ratioP1;P1;durP2;ratioP2;P2;SDS_P1;SDS_P2;PMS_P1;PMS_P2;Temp;Humidity;BMP_temperature;BMP_pressure;BME280_temperature;BME280_humidity;BME280_pressure;Samples;Min_cycle;Max_cycle;Signal;HPM_P1;HPM_P2
2022/11/14 00:02:20;;;;;;;;;;;6.80;99.90;;;;;;4996386;28;20012;-75
2022/11/14 00:05:06;;;;;;;;;;;6.70;99.90;;;;;;4995554;28;20454;-75
2022/11/14 00:07:52;;;;;;;;;;;6.70;99.90;;;;;;4999227;28;19932;-74
2022/11/14 00:10:37;;;;;;;;;;;6.70;99.90;;;;;;4993502;28;20396;-74
2022/11/14 00:13:24;;;;;;;;;;;6.80;99.90;;;;;;4997274;28;19944;-74
2022/11/14 00:16:09;;;;;;;;;;;6.80;99.90;;;;;;5001213;28;19932;-75
2022/11/14 00:18:54;;;;;;;;;;;6.70;99.90;;;;;;4998734;28;20067;-75
2022/11/14 00:21:39;;;;;;;;;;;6.70;99.90;;;;;;4995804;28;19941;-75
2022/11/14 00:24:24;;;;;;;;;;;6.70;99.90;;;;;;4997526;28;20032;-75
2022/11/14 00:27:11;;;;;;;;;;;6.70;99.90;;;;;;4996867;28;20087;-74
2022/11/14 00:29:58;;;;;;;;;;;6.70;99.90;;;;;;4998389;28;20427;-74
2022/11/14 00:32:43;;;;;;;;;;;6.70;99.90;;;;;;4997304;28;19987;-74
2022/11/14 00:35:29;;;;;;;;;;;6.70;99.90;;;;;;5000442;28;20651;-75
2022/11/14 00:38:14;;;;;;;;;;;6.70;99.90;;;;;;4998564;28;19936;-75
2022/11/14 00:40:59;;;;;;;;;;;6.70;99.90;;;;;;4996105;28;19932;-75
2022/11/14 00:43:45;;;;;;;;;;;6.70;99.90;;;;;;4997541;28;19940;-75
2022/11/14 00:46:33;;;;;;;;;;;6.70;99.90;;;;;;4998349;28;19940;-75
2022/11/14 00:49:18;;;;;;;;;;;6.70;99.90;;;;;;4998454;28;19932;-75
2022/11/14 00:52:03;;;;;;;;;;;6.70;99.90;;;;;;4995679;28;19941;-75
2022/11/14 00:54:48;;;;;;;;;;;6.70;99.90;;;;;;4996893;28;20463;-75
2022/11/14 00:57:34;;;;;;;;;;;6.70;99.90;;;;;;4999465;28;19932;-74
2022/11/14 01:00:19;;;;;;;;;;;6.70;99.90;;;;;;4995286;28;19932;-75
2022/11/14 01:03:06;;;;;;;;;;;6.70;99.90;;;;;;4996470;28;20067;-76
2022/11/14 01:05:51;;;;;;;;;;;6.70;99.90;;;;;;5000668;28;20314;-74
2022/11/14 01:08:37;;;;;;;;;;;6.70;99.90;;;;;;4994240;28;19932;-75
2022/11/14 01:11:22;;;;;;;;;;;6.70;99.90;;;;;;4997658;28;20067;-75
2022/11/14 01:14:08;;;;;;;;;;;6.70;99.90;;;;;;5001224;28;20054;-74
2022/11/14 01:16:53;;;;;;;;;;;6.80;99.90;;;;;;5001518;28;19932;-74
2022/11/14 01:19:40;;;;;;;;;;;6.70;99.90;;;;;;5002907;28;20626;-75
2022/11/14 01:22:26;;;;;;;;;;;6.70;99.90;;;;;;5000907;28;20015;-74
2022/11/14 01:25:11;;;;;;;;;;;6.70;99.90;;;;;;5000026;28;19932;-75
2022/11/14 01:27:56;;;;;;;;;;;6.70;99.90;;;;;;4999115;28;20063;-75
2022/11/14 01:30:42;;;;;;;;;;;6.70;99.90;;;;;;5001755;28;19936;-74
2022/11/14 01:33:27;;;;;;;;;;;6.70;99.90;;;;;;4999898;28;19933;-74
2022/11/14 01:36:14;;;;;;;;;;;6.70;99.90;;;;;;5000308;28;20104;-74
2022/11/14 01:38:59;;;;;;;;;;;6.70;99.90;;;;;;4999584;28;19940;-74
2022/11/14 01:41:44;;;;;;;;;;;6.70;99.90;;;;;;4995589;28;19933;-75
2022/11/14 01:44:43;;;;;;;;;;;6.70;99.90;;;;;;4996204;28;19979;-75
2022/11/14 01:47:30;;;;;;;;;;;6.70;99.90;;;;;;4997364;28;20437;-75
2022/11/14 01:50:15;;;;;;;;;;;6.70;99.90;;;;;;4994363;28;19933;-75
2022/11/14 01:53:02;;;;;;;;;;;6.60;99.90;;;;;;4994455;28;20030;-74
2022/11/14 01:55:48;;;;;;;;;;;6.70;99.90;;;;;;5002074;28;19931;-75
2022/11/14 01:58:35;;;;;;;;;;;6.70;99.90;;;;;;5001050;28;20474;-75
2022/11/14 02:01:21;;;;;;;;;;;6.70;99.90;;;;;;4999952;28;19931;-74
2022/11/14 02:04:06;;;;;;;;;;;6.70;99.90;;;;;;4998893;28;19941;-75
2022/11/14 02:06:54;;;;;;;;;;;6.70;99.90;;;;;;4994565;28;19936;-75
2022/11/14 02:09:42;;;;;;;;;;;6.60;99.90;;;;;;4997803;28;19972;-74
2022/11/14 02:12:27;;;;;;;;;;;6.70;99.90;;;;;;5002140;28;19932;-74
2022/11/14 02:15:13;;;;;;;;;;;6.70;99.90;;;;;;5003768;28;20485;-75
2022/11/14 02:17:59;;;;;;;;;;;6.60;99.90;;;;;;5001814;28;20005;-75
2022/11/14 02:20:46;;;;;;;;;;;6.70;99.90;;;;;;4995370;28;20029;-75
2022/11/14 02:23:32;;;;;;;;;;;6.70;99.90;;;;;;4999583;28;20008;-75
2022/11/14 02:26:18;;;;;;;;;;;6.60;99.90;;;;;;5000798;28;19983;-74
2022/11/14 02:29:04;;;;;;;;;;;6.60;99.90;;;;;;5001403;28;20323;-74
2022/11/14 02:31:49;;;;;;;;;;;6.60;99.90;;;;;;4998351;28;19937;-74
2022/11/14 02:34:34;;;;;;;;;;;6.60;99.90;;;;;;4993981;28;19941;-74
2022/11/14 02:37:21;;;;;;;;;;;6.60;99.90;;;;;;5000123;28;19940;-75
2022/11/14 02:40:07;;;;;;;;;;;6.60;99.90;;;;;;4996591;28;20422;-75
2022/11/14 02:42:52;;;;;;;;;;;6.60;99.90;;;;;;4996789;28;20014;-75
2022/11/14 02:45:37;;;;;;;;;;;6.60;99.90;;;;;;4997105;28;19932;-74
2022/11/14 02:48:23;;;;;;;;;;;6.60;99.90;;;;;;4997513;28;20404;-74
2022/11/14 02:51:08;;;;;;;;;;;6.60;99.90;;;;;;4994499;28;19932;-74
2022/11/14 02:53:55;;;;;;;;;;;6.60;99.90;;;;;;5002505;28;20040;-74
2022/11/14 02:56:41;;;;;;;;;;;6.60;99.90;;;;;;4993005;28;19933;-75
2022/11/14 02:59:26;;;;;;;;;;;6.60;99.90;;;;;;4994962;28;19936;-74
2022/11/14 03:02:13;;;;;;;;;;;6.60;99.90;;;;;;4999125;28;20423;-74
2022/11/14 03:04:58;;;;;;;;;;;6.60;99.90;;;;;;4996704;28;19932;-75
2022/11/14 03:07:43;;;;;;;;;;;6.60;99.90;;;;;;4995659;28;19979;-74
2022/11/14 03:10:30;;;;;;;;;;;6.60;99.90;;;;;;4994904;28;20068;-74
2022/11/14 03:13:15;;;;;;;;;;;6.60;99.90;;;;;;4998926;28;20354;-75
2022/11/14 03:16:04;;;;;;;;;;;6.60;99.90;;;;;;4995310;28;19937;-75
2022/11/14 03:18:49;;;;;;;;;;;6.60;99.90;;;;;;4996593;28;21143;-75
2022/11/14 03:21:35;;;;;;;;;;;6.60;99.90;;;;;;5002933;28;20426;-74
2022/11/14 03:24:20;;;;;;;;;;;6.60;99.90;;;;;;4998112;28;19945;-75
2022/11/14 03:27:06;;;;;;;;;;;6.60;99.90;;;;;;4993458;28;20410;-75
2022/11/14 03:29:52;;;;;;;;;;;6.60;99.90;;;;;;5001511;28;20075;-75
2022/11/14 03:32:37;;;;;;;;;;;6.60;99.90;;;;;;4998421;28;20056;-74
2022/11/14 03:35:23;;;;;;;;;;;6.60;99.90;;;;;;4997608;28;19980;-74
2022/11/14 03:38:08;;;;;;;;;;;6.50;99.90;;;;;;5000746;28;19933;-75
2022/11/14 03:40:54;;;;;;;;;;;6.50;99.90;;;;;;4995904;28;19983;-75
2022/11/14 03:43:40;;;;;;;;;;;6.50;99.90;;;;;;4998204;28;20446;-74
2022/11/14 03:46:26;;;;;;;;;;;6.60;99.90;;;;;;5001764;28;20410;-75
2022/11/14 03:49:11;;;;;;;;;;;6.50;99.90;;;;;;4998761;28;20064;-75
2022/11/14 03:51:56;;;;;;;;;;;6.60;99.90;;;;;;4993987;28;19940;-74
2022/11/14 03:54:42;;;;;;;;;;;6.60;99.90;;;;;;4999166;28;20317;-74
2022/11/14 03:57:27;;;;;;;;;;;6.50;99.90;;;;;;4996392;28;20598;-75
2022/11/14 04:00:14;;;;;;;;;;;6.60;99.90;;;;;;4994119;28;19936;-75
2022/11/14 04:02:59;;;;;;;;;;;6.60;99.90;;;;;;4999542;28;20302;-74
2022/11/14 04:05:45;;;;;;;;;;;6.60;99.90;;;;;;4998388;28;20011;-75
2022/11/14 04:08:30;;;;;;;;;;;6.60;99.90;;;;;;4996167;28;19932;-74
2022/11/14 04:11:15;;;;;;;;;;;6.60;99.90;;;;;;4999512;28;20349;-75
2022/11/14 04:14:01;;;;;;;;;;;6.60;99.90;;;;;;4996201;28;19940;-75
2022/11/14 04:16:48;;;;;;;;;;;6.60;99.90;;;;;;4993153;28;20777;-74
2022/11/14 04:19:33;;;;;;;;;;;6.60;99.90;;;;;;5003297;28;20304;-74
2022/11/14 04:22:18;;;;;;;;;;;6.60;99.90;;;;;;4996591;28;20522;-75
2022/11/14 04:25:04;;;;;;;;;;;6.60;99.90;;;;;;4991478;28;20422;-74
2022/11/14 04:27:49;;;;;;;;;;;6.60;99.90;;;;;;4997613;28;19972;-74
2022/11/14 04:30:34;;;;;;;;;;;6.60;99.90;;;;;;4987843;28;19941;-74
2022/11/14 04:33:21;;;;;;;;;;;6.50;99.90;;;;;;4997937;28;20007;-75
2022/11/14 04:36:07;;;;;;;;;;;6.50;99.90;;;;;;4995503;28;19932;-74
2022/11/14 04:38:52;;;;;;;;;;;6.50;99.90;;;;;;4989174;28;19933;-74
2022/11/14 04:41:37;;;;;;;;;;;6.50;99.90;;;;;;4999139;28;19932;-74
2022/11/14 04:44:22;;;;;;;;;;;6.60;99.90;;;;;;4995515;28;20410;-74
2022/11/14 04:47:08;;;;;;;;;;;6.50;99.90;;;;;;4997890;28;19948;-74
2022/11/14 04:49:54;;;;;;;;;;;6.60;99.90;;;;;;4997991;28;19936;-74
2022/11/14 04:52:39;;;;;;;;;;;6.60;99.90;;;;;;4992739;28;19933;-74
2022/11/14 04:55:25;;;;;;;;;;;6.60;99.90;;;;;;5001725;28;19951;-74
2022/11/14 04:58:10;;;;;;;;;;;6.50;99.90;;;;;;4998947;28;20303;-74
2022/11/14 05:00:56;;;;;;;;;;;6.50;99.90;;;;;;4999581;28;19932;-74
2022/11/14 05:03:41;;;;;;;;;;;6.60;99.90;;;;;;4994414;28;19956;-74
2022/11/14 05:06:28;;;;;;;;;;;6.60;99.90;;;;;;5003915;28;20407;-75
2022/11/14 05:09:14;;;;;;;;;;;6.50;99.90;;;;;;4994981;28;19944;-74
2022/11/14 05:11:59;;;;;;;;;;;6.60;99.90;;;;;;4995586;28;19952;-76
2022/11/14 05:14:44;;;;;;;;;;;6.60;99.90;;;;;;4999198;28;19983;-75
2022/11/14 05:17:30;;;;;;;;;;;6.50;99.90;;;;;;4997678;28;20433;-75
2022/11/14 05:20:15;;;;;;;;;;;6.50;99.90;;;;;;4995464;28;19957;-73
2022/11/14 05:23:02;;;;;;;;;;;6.50;99.90;;;;;;4995680;28;20014;-76
2022/11/14 05:25:47;;;;;;;;;;;6.50;99.90;;;;;;4994623;28;20339;-73
2022/11/14 05:28:33;;;;;;;;;;;6.60;99.90;;;;;;4998142;28;19940;-75
2022/11/14 05:31:18;;;;;;;;;;;6.50;99.90;;;;;;4996288;28;19933;-74
2022/11/14 05:34:07;;;;;;;;;;;6.50;99.90;;;;;;4990382;28;20415;-79
2022/11/14 05:36:52;;;;;;;;;;;6.50;99.90;;;;;;5000100;28;19944;-77
2022/11/14 05:39:39;;;;;;;;;;;6.60;99.90;;;;;;4997463;28;20438;-75
2022/11/14 05:42:24;;;;;;;;;;;6.50;99.90;;;;;;4995330;28;19967;-74
2022/11/14 05:45:10;;;;;;;;;;;6.50;99.90;;;;;;4997296;28;20083;-75
2022/11/14 05:47:55;;;;;;;;;;;6.60;99.90;;;;;;4998894;28;21817;-77
2022/11/14 05:50:41;;;;;;;;;;;6.60;99.90;;;;;;5002409;28;19932;-76
2022/11/14 05:53:26;;;;;;;;;;;6.60;99.90;;;;;;4996367;28;19952;-78
2022/11/14 05:56:13;;;;;;;;;;;6.50;99.90;;;;;;4998419;28;19944;-76
2022/11/14 05:58:59;;;;;;;;;;;6.50;99.90;;;;;;4995518;28;19936;-75
2022/11/14 06:01:44;;;;;;;;;;;6.50;99.90;;;;;;4990298;28;20003;-80
2022/11/14 06:04:29;;;;;;;;;;;6.50;99.90;;;;;;4999059;28;19936;-81
2022/11/14 06:07:15;;;;;;;;;;;6.60;99.90;;;;;;4997590;28;19936;-76
2022/11/14 06:10:00;;;;;;;;;;;6.60;99.90;;;;;;4999800;28;20098;-75
2022/11/14 06:12:48;;;;;;;;;;;6.60;99.90;;;;;;5006093;28;20430;-75
2022/11/14 06:15:33;;;;;;;;;;;6.60;99.90;;;;;;4991387;28;19941;-75
2022/11/14 06:18:19;;;;;;;;;;;6.60;99.90;;;;;;4995680;28;19933;-76
2022/11/14 06:21:06;;;;;;;;;;;6.60;99.90;;;;;;4998791;28;20019;-75
2022/11/14 06:23:51;;;;;;;;;;;6.60;99.90;;;;;;5000279;28;19932;-75
2022/11/14 06:26:37;;;;;;;;;;;6.60;99.90;;;;;;4999907;28;20136;-75
2022/11/14 06:29:23;;;;;;;;;;;6.60;99.90;;;;;;5002487;28;20064;-75
2022/11/14 06:32:08;;;;;;;;;;;6.50;99.90;;;;;;5005931;28;20483;-75
2022/11/14 06:34:54;;;;;;;;;;;6.60;99.90;;;;;;5007382;28;20001;-75
2022/11/14 06:37:39;;;;;;;;;;;6.60;99.90;;;;;;5004544;28;19932;-75
2022/11/14 06:40:25;;;;;;;;;;;6.60;99.90;;;;;;5000405;28;19933;-75
2022/11/14 06:43:10;;;;;;;;;;;6.60;99.90;;;;;;5005639;28;20025;-75
2022/11/14 06:45:56;;;;;;;;;;;6.60;99.90;;;;;;4996611;28;19949;-75
2022/11/14 06:48:42;;;;;;;;;;;6.60;99.90;;;;;;5001701;28;20307;-75
2022/11/14 06:51:27;;;;;;;;;;;6.60;99.90;;;;;;5005235;28;19948;-74
2022/11/14 06:54:12;;;;;;;;;;;6.60;99.90;;;;;;5002404;28;19940;-74
2022/11/14 06:56:57;;;;;;;;;;;6.60;99.90;;;;;;5003337;28;20048;-73
2022/11/14 06:59:43;;;;;;;;;;;6.60;99.90;;;;;;4997411;28;19940;-74
2022/11/14 07:02:30;;;;;;;;;;;6.60;99.90;;;;;;5001051;28;20059;-73
2022/11/14 07:05:15;;;;;;;;;;;6.60;99.90;;;;;;5003006;28;19941;-74
2022/11/14 07:08:00;;;;;;;;;;;6.60;99.90;;;;;;5003349;28;19931;-74
2022/11/14 07:10:45;;;;;;;;;;;6.60;99.90;;;;;;4999983;28;20410;-74
2022/11/14 07:13:31;;;;;;;;;;;6.60;99.90;;;;;;4995720;28;20019;-72
2022/11/14 07:16:16;;;;;;;;;;;6.60;99.90;;;;;;5001158;28;19948;-72
2022/11/14 07:19:04;;;;;;;;;;;6.60;99.90;;;;;;5000425;28;20700;-74
2022/11/14 07:21:50;;;;;;;;;;;6.60;99.90;;;;;;4996180;28;19932;-73
2022/11/14 07:24:35;;;;;;;;;;;6.60;99.90;;;;;;5006989;28;19932;-74
2022/11/14 07:27:20;;;;;;;;;;;6.60;99.90;;;;;;5000989;28;19967;-74
2022/11/14 07:30:06;;;;;;;;;;;6.60;99.90;;;;;;5000698;28;19979;-74
2022/11/14 07:32:54;;;;;;;;;;;6.60;99.90;;;;;;5003456;28;19931;-74
2022/11/14 07:35:41;;;;;;;;;;;6.60;99.90;;;;;;5002024;28;20031;-75
2022/11/14 07:38:27;;;;;;;;;;;6.60;99.90;;;;;;4995072;28;20402;-73
2022/11/14 07:41:13;;;;;;;;;;;6.60;99.90;;;;;;4996741;28;19936;-74
2022/11/14 07:43:59;;;;;;;;;;;6.60;99.90;;;;;;5006378;28;19953;-73
2022/11/14 07:46:44;;;;;;;;;;;6.60;99.90;;;;;;5001661;28;20010;-74
2022/11/14 07:49:30;;;;;;;;;;;6.70;99.90;;;;;;5001122;28;20002;-74
2022/11/14 07:52:16;;;;;;;;;;;6.70;99.90;;;;;;4996560;28;19940;-74
2022/11/14 07:55:02;;;;;;;;;;;6.60;99.90;;;;;;5000883;28;20010;-74
2022/11/14 07:57:47;;;;;;;;;;;6.70;99.90;;;;;;4997857;28;19932;-74
2022/11/14 08:00:32;;;;;;;;;;;6.60;99.90;;;;;;5004930;28;20003;-74
2022/11/14 08:03:18;;;;;;;;;;;6.70;99.90;;;;;;5001394;28;19979;-73
2022/11/14 08:06:04;;;;;;;;;;;6.60;99.90;;;;;;4997862;28;19932;-73
2022/11/14 08:08:50;;;;;;;;;;;6.70;99.90;;;;;;5000081;28;19933;-74
2022/11/14 08:11:48;;;;;;;;;;;6.70;99.90;;;;;;5001988;28;20002;-72
2022/11/14 08:14:36;;;;;;;;;;;6.70;99.90;;;;;;5005919;28;20060;-74
2022/11/14 08:17:21;;;;;;;;;;;6.70;99.90;;;;;;5006641;28;19932;-74
2022/11/14 08:20:08;;;;;;;;;;;6.70;99.90;;;;;;5005008;28;20064;-74
2022/11/14 08:22:54;;;;;;;;;;;6.70;99.90;;;;;;4999070;28;19976;-74
2022/11/14 08:25:41;;;;;;;;;;;6.70;99.90;;;;;;5003890;28;20434;-74
2022/11/14 08:28:26;;;;;;;;;;;6.70;99.90;;;;;;4999480;28;19932;-73
2022/11/14 08:31:12;;;;;;;;;;;6.80;99.90;;;;;;4994384;28;19933;-73
2022/11/14 08:33:57;;;;;;;;;;;6.80;99.90;;;;;;5006174;28;19932;-72
2022/11/14 08:36:43;;;;;;;;;;;6.70;99.90;;;;;;5003025;28;19980;-73
2022/11/14 08:39:28;;;;;;;;;;;6.80;99.90;;;;;;4997095;28;19932;-73
2022/11/14 08:42:15;;;;;;;;;;;6.80;99.90;;;;;;4999889;28;19987;-74
2022/11/14 08:45:00;;;;;;;;;;;6.80;99.90;;;;;;5005724;28;19979;-73
2022/11/14 08:47:50;;;;;;;;;;;6.80;99.90;;;;;;5004163;28;20019;-73
2022/11/14 08:50:36;;;;;;;;;;;6.80;99.90;;;;;;5006416;28;20076;-74
2022/11/14 08:53:21;;;;;;;;;;;6.80;99.90;;;;;;4997536;28;20329;-72
2022/11/14 08:56:06;;;;;;;;;;;6.80;99.90;;;;;;4998017;28;20397;-74
2022/11/14 08:58:53;;;;;;;;;;;6.80;99.90;;;;;;5004875;28;19940;-74
2022/11/14 09:01:38;;;;;;;;;;;6.80;99.90;;;;;;4998400;28;19956;-74
2022/11/14 09:04:23;;;;;;;;;;;6.80;99.90;;;;;;5001842;28;20064;-73
2022/11/14 09:07:08;;;;;;;;;;;6.90;99.90;;;;;;4999718;28;19940;-74
2022/11/14 09:09:54;;;;;;;;;;;6.90;99.90;;;;;;5004795;28;19932;-74
2022/11/14 09:12:39;;;;;;;;;;;6.90;99.90;;;;;;5002555;28;19932;-72
2022/11/14 09:15:26;;;;;;;;;;;6.90;99.90;;;;;;4998909;28;19937;-74
2022/11/14 09:18:12;;;;;;;;;;;6.90;99.90;;;;;;5005030;28;20477;-74
2022/11/14 09:20:59;;;;;;;;;;;6.90;99.90;;;;;;5000860;28;19952;-73
2022/11/14 09:23:46;;;;;;;;;;;6.90;99.90;;;;;;5002488;28;19933;-74
2022/11/14 09:26:31;;;;;;;;;;;7.00;99.90;;;;;;5002141;28;20064;-74
2022/11/14 09:29:17;;;;;;;;;;;7.00;99.90;;;;;;4999454;28;20445;-74
2022/11/14 09:32:04;;;;;;;;;;;7.00;99.90;;;;;;5000572;28;19987;-74
2022/11/14 09:34:50;;;;;;;;;;;7.00;99.90;;;;;;5002088;28;20464;-72
2022/11/14 09:37:35;;;;;;;;;;;7.00;99.90;;;;;;4998965;28;20469;-74
2022/11/14 09:40:21;;;;;;;;;;;7.00;99.90;;;;;;5008624;28;19940;-73
2022/11/14 09:43:13;;;;;;;;;;;7.00;99.90;;;;;;5005605;28;20011;-74
2022/11/14 09:45:58;;;;;;;;;;;7.10;99.90;;;;;;5007544;28;20059;-73
2022/11/14 09:48:45;;;;;;;;;;;7.10;99.90;;;;;;5004679;28;19932;-74
2022/11/14 09:51:32;;;;;;;;;;;7.10;99.90;;;;;;5008459;28;19980;-73
2022/11/14 09:54:20;;;;;;;;;;;7.10;99.90;;;;;;5002840;28;19999;-74
2022/11/14 09:57:13;;;;;;;;;;;7.10;99.90;;;;;;5001156;28;20396;-74
2022/11/14 09:59:58;;;;;;;;;;;7.10;99.90;;;;;;5006746;28;19932;-74
2022/11/14 10:02:54;;;;;;;;;;;7.10;99.90;;;;;;5002076;28;19932;-73
2022/11/14 10:05:47;;;;;;;;;;;7.20;99.90;;;;;;5005381;28;19996;-74
2022/11/14 10:08:43;;;;;;;;;;;7.20;99.90;;;;;;5000783;28;19932;-73
2022/11/14 10:11:33;;;;;;;;;;;7.20;99.90;;;;;;5009959;28;20086;-72
2022/11/14 10:14:36;;;;;;;;;;;7.20;99.90;;;;;;5003915;28;20508;-74
2022/11/14 10:17:28;;;;;;;;;;;7.20;99.90;;;;;;5007115;28;19972;-73
2022/11/14 10:20:18;;;;;;;;;;;7.20;99.90;;;;;;5007965;28;20291;-74
2022/11/14 10:23:12;;;;;;;;;;;7.20;99.90;;;;;;5000382;28;19940;-73
2022/11/14 10:26:05;;;;;;;;;;;7.20;99.90;;;;;;5004810;28;19933;-73
2022/11/14 10:28:57;;;;;;;;;;;7.20;99.90;;;;;;5000121;28;19980;-74
2022/11/14 10:31:49;;;;;;;;;;;7.30;99.90;;;;;;5007422;28;19940;-74
2022/11/14 10:34:35;;;;;;;;;;;7.30;99.90;;;;;;5006137;28;20092;-74
2022/11/14 10:37:24;;;;;;;;;;;7.30;99.90;;;;;;5003214;28;19933;-74
2022/11/14 10:40:16;;;;;;;;;;;7.30;99.90;;;;;;5003815;28;19971;-74
2022/11/14 10:43:03;;;;;;;;;;;7.30;99.90;;;;;;5004356;28;19943;-74
2022/11/14 10:45:50;;;;;;;;;;;7.30;99.90;;;;;;5007149;28;19932;-74
2022/11/14 10:48:38;;;;;;;;;;;7.40;99.90;;;;;;5002850;28;19941;-72
2022/11/14 10:51:26;;;;;;;;;;;7.40;99.90;;;;;;4996244;28;20122;-73
2022/11/14 10:54:13;;;;;;;;;;;7.40;99.90;;;;;;5004008;28;20303;-74
2022/11/14 10:57:00;;;;;;;;;;;7.40;99.90;;;;;;4999973;28;19980;-74
2022/11/14 10:59:46;;;;;;;;;;;7.50;99.90;;;;;;5002400;28;20384;-74
2022/11/14 11:02:46;;;;;;;;;;;7.50;99.90;;;;;;5000217;28;19937;-74
2022/11/14 11:05:32;;;;;;;;;;;7.50;99.90;;;;;;5005491;28;19936;-74
2022/11/14 11:11:30;;;;;;;;;;;7.50;99.90;;;;;;5007157;28;20036;-74
2022/11/14 11:14:18;;;;;;;;;;;7.50;99.90;;;;;;4999936;28;19948;-74
2022/11/14 11:17:18;;;;;;;;;;;7.60;99.90;;;;;;5007214;28;19971;-73
2022/11/14 11:20:21;;;;;;;;;;;7.60;99.90;;;;;;5002767;28;19932;-71
2022/11/14 11:23:17;;;;;;;;;;;7.60;99.90;;;;;;4998833;28;20029;-73
2022/11/14 11:26:04;;;;;;;;;;;7.60;99.90;;;;;;5000613;28;19952;-73
2022/11/14 11:29:01;;;;;;;;;;;7.60;99.90;;;;;;5003458;28;20001;-74
2022/11/14 11:31:52;;;;;;;;;;;7.60;99.90;;;;;;4994053;28;19982;-72
2022/11/14 11:34:37;;;;;;;;;;;7.70;99.90;;;;;;5003503;28;19932;-73
2022/11/14 11:37:24;;;;;;;;;;;7.70;99.90;;;;;;5001331;28;19956;-74
2022/11/14 11:40:14;;;;;;;;;;;7.70;99.90;;;;;;4996090;28;19933;-73
2022/11/14 11:43:02;;;;;;;;;;;7.70;99.90;;;;;;5006319;28;20465;-73
2022/11/14 11:45:49;;;;;;;;;;;7.70;99.90;;;;;;5007828;28;19934;-74
2022/11/14 11:48:37;;;;;;;;;;;7.70;99.90;;;;;;5002376;28;20019;-74
2022/11/14 11:51:24;;;;;;;;;;;7.80;99.90;;;;;;5001637;28;19931;-74
2022/11/14 11:54:13;;;;;;;;;;;7.80;99.90;;;;;;5001066;28;19941;-74
2022/11/14 11:57:00;;;;;;;;;;;7.80;99.90;;;;;;5001692;28;19932;-73
2022/11/14 11:59:48;;;;;;;;;;;7.80;99.90;;;;;;4999413;28;20353;-73
2022/11/14 12:02:36;;;;;;;;;;;7.80;99.90;;;;;;4998532;28;19933;-73
2022/11/14 12:05:26;;;;;;;;;;;7.80;99.90;;;;;;4998565;28;20339;-73
2022/11/14 12:08:17;;;;;;;;;;;7.90;99.90;;;;;;4999435;28;20426;-74
2022/11/14 12:11:04;;;;;;;;;;;7.90;99.90;;;;;;5003363;28;20052;-73
2022/11/14 12:13:57;;;;;;;;;;;7.90;99.90;;;;;;5002367;28;19933;-74
2022/11/14 12:17:04;;;;;;;;;;;7.90;99.90;;;;;;5005967;28;19932;-73
2022/11/14 12:19:54;;;;;;;;;;;7.90;99.90;;;;;;5003907;28;19933;-73
2022/11/14 12:22:47;;;;;;;;;;;7.90;99.90;;;;;;4996129;28;20415;-72
2022/11/14 12:25:42;;;;;;;;;;;8.00;99.90;;;;;;5000575;28;19978;-73
2022/11/14 12:28:35;;;;;;;;;;;8.00;99.90;;;;;;4999647;28;19971;-73
2022/11/14 12:31:21;;;;;;;;;;;8.00;99.90;;;;;;4999188;28;19980;-73
2022/11/14 12:34:14;;;;;;;;;;;8.00;99.90;;;;;;4990454;28;20020;-73
2022/11/14 12:37:00;;;;;;;;;;;8.00;99.90;;;;;;5005157;28;19933;-73
2022/11/14 12:39:56;;;;;;;;;;;8.10;99.90;;;;;;5004230;28;20311;-73
2022/11/14 12:42:45;;;;;;;;;;;8.10;99.90;;;;;;4999132;28;19944;-73
2022/11/14 12:45:58;;;;;;;;;;;8.10;99.90;;;;;;5003955;28;20573;-73
2022/11/14 12:48:44;;;;;;;;;;;8.10;99.90;;;;;;4989176;28;20019;-73
2022/11/14 12:51:49;;;;;;;;;;;8.20;99.90;;;;;;5001503;28;20019;-73
2022/11/14 12:54:45;;;;;;;;;;;8.20;99.90;;;;;;4998896;28;19933;-72
2022/11/14 12:57:47;;;;;;;;;;;8.20;99.90;;;;;;4997390;28;19941;-73
2022/11/14 13:00:33;;;;;;;;;;;8.20;99.90;;;;;;5001819;28;19933;-73
2022/11/14 13:03:26;;;;;;;;;;;8.20;99.90;;;;;;4997694;28;19936;-73
2022/11/14 13:06:16;;;;;;;;;;;8.20;99.90;;;;;;5000553;28;19932;-73
2022/11/14 13:09:19;;;;;;;;;;;8.30;99.90;;;;;;5005100;28;19932;-74
2022/11/14 13:22:13;;;;;;;;;;;8.40;99.90;;;;;;5000618;28;19928;-74
2022/11/14 13:25:19;;;;;;;;;;;8.40;99.90;;;;;;5003958;28;19932;-74
2022/11/14 13:28:19;;;;;;;;;;;8.40;99.90;;;;;;5003442;28;19992;-74
2022/11/14 13:31:07;;;;;;;;;;;8.40;99.90;;;;;;5004761;28;20398;-74
2022/11/14 13:33:58;;;;;;;;;;;8.40;99.90;;;;;;5003497;28;20323;-75
2022/11/14 13:36:47;;;;;;;;;;;8.40;99.90;;;;;;5009787;28;20418;-74
2022/11/14 13:39:39;;;;;;;;;;;8.50;99.90;;;;;;5003385;28;19933;-75
2022/11/14 13:42:29;;;;;;;;;;;8.50;99.90;;;;;;5000929;28;19933;-74
2022/11/14 13:45:27;;;;;;;;;;;8.50;99.90;;;;;;5001149;28;20358;-75
2022/11/14 13:48:34;;;;;;;;;;;8.50;99.90;;;;;;5006069;28;20132;-75
2022/11/14 13:51:21;;;;;;;;;;;8.60;99.90;;;;;;4998348;28;20037;-75
2022/11/14 13:54:10;;;;;;;;;;;8.60;99.90;;;;;;5004041;28;19940;-75
2022/11/14 13:57:00;;;;;;;;;;;8.60;99.90;;;;;;5003745;28;19941;-74
2022/11/14 13:59:53;;;;;;;;;;;8.60;99.90;;;;;;5005084;28;19933;-74
2022/11/14 14:02:48;;;;;;;;;;;8.60;99.90;;;;;;4994514;28;20061;-75
2022/11/14 14:05:47;;;;;;;;;;;8.70;99.90;;;;;;5005176;28;19932;-74
2022/11/14 14:08:42;;;;;;;;;;;8.70;99.90;;;;;;5002238;28;20043;-74
2022/11/14 14:11:44;;;;;;;;;;;8.70;99.90;;;;;;5009486;28;19969;-74
2022/11/14 14:14:38;;;;;;;;;;;8.70;99.90;;;;;;4999970;28;20103;-74
2022/11/14 14:17:29;;;;;;;;;;;8.70;99.90;;;;;;5005598;28;20048;-75
2022/11/14 14:20:19;;;;;;;;;;;8.70;99.90;;;;;;4998981;28;20492;-75
2022/11/14 14:23:12;;;;;;;;;;;8.80;99.90;;;;;;5003804;28;20447;-74
2022/11/14 14:26:03;;;;;;;;;;;8.80;99.90;;;;;;4996724;28;20398;-75
2022/11/14 14:28:55;;;;;;;;;;;8.80;99.90;;;;;;5005763;28;19933;-75
2022/11/14 14:31:41;;;;;;;;;;;8.80;99.90;;;;;;5004533;28;19979;-74
2022/11/14 14:34:28;;;;;;;;;;;8.80;99.90;;;;;;5003625;28;19939;-75
2022/11/14 14:37:18;;;;;;;;;;;8.80;99.90;;;;;;5009246;28;19940;-74
2022/11/14 14:40:04;;;;;;;;;;;8.90;99.90;;;;;;5003875;28;19941;-75
2022/11/14 14:42:51;;;;;;;;;;;8.90;99.90;;;;;;5005201;28;20044;-75
2022/11/14 14:45:44;;;;;;;;;;;8.90;99.90;;;;;;5003428;28;19948;-75
2022/11/14 14:48:31;;;;;;;;;;;8.90;99.90;;;;;;5004913;28;19980;-75
2022/11/14 14:51:28;;;;;;;;;;;8.90;99.90;;;;;;5003841;28;20410;-75
2022/11/14 14:54:19;;;;;;;;;;;8.90;99.90;;;;;;5000925;28;19932;-75
2022/11/14 14:57:05;;;;;;;;;;;8.90;99.90;;;;;;5005021;28;21283;-75
2022/11/14 14:59:59;;;;;;;;;;;8.90;99.90;;;;;;5008009;28;19933;-75
2022/11/14 15:02:46;;;;;;;;;;;8.90;99.90;;;;;;4997236;28;20150;-75
2022/11/14 15:05:32;;;;;;;;;;;8.90;99.90;;;;;;5006659;28;20061;-75
2022/11/14 15:08:17;;;;;;;;;;;9.00;99.90;;;;;;4998730;28;19997;-74
2022/11/14 15:11:03;;;;;;;;;;;9.00;99.90;;;;;;5000791;28;19933;-75
2022/11/14 15:13:50;;;;;;;;;;;9.00;99.90;;;;;;5003128;28;19944;-74
2022/11/14 15:16:36;;;;;;;;;;;9.00;99.90;;;;;;5003214;28;19940;-75
2022/11/14 15:19:23;;;;;;;;;;;9.00;99.90;;;;;;5004165;28;20410;-74
2022/11/14 15:22:21;;;;;;;;;;;9.00;99.90;;;;;;5003710;28;19964;-75
2022/11/14 15:25:17;;;;;;;;;;;9.00;99.90;;;;;;5001014;28;19949;-75
2022/11/14 15:28:03;;;;;;;;;;;9.00;99.90;;;;;;4998306;28;19940;-75
2022/11/14 15:30:57;;;;;;;;;;;9.00;99.90;;;;;;5006753;28;20134;-75
2022/11/14 15:33:44;;;;;;;;;;;9.00;99.90;;;;;;5002372;28;19964;-75
2022/11/14 15:36:29;;;;;;;;;;;9.00;99.90;;;;;;5000825;28;20542;-75
2022/11/14 15:39:23;;;;;;;;;;;9.00;99.90;;;;;;4996220;28;20471;-74
2022/11/14 15:42:12;;;;;;;;;;;9.00;99.90;;;;;;5002948;28;19940;-74
2022/11/14 15:44:58;;;;;;;;;;;9.00;99.90;;;;;;4998947;28;19984;-75
2022/11/14 15:47:43;;;;;;;;;;;9.00;99.90;;;;;;5006668;28;20303;-75
2022/11/14 15:50:31;;;;;;;;;;;9.00;99.90;;;;;;5004358;28;20299;-75
2022/11/14 15:53:20;;;;;;;;;;;9.00;99.90;;;;;;4998771;28;19932;-75
2022/11/14 15:56:06;;;;;;;;;;;9.00;99.90;;;;;;5004199;28;20445;-74
2022/11/14 15:58:51;;;;;;;;;;;9.00;99.90;;;;;;5004313;28;19944;-75
2022/11/14 16:01:36;;;;;;;;;;;9.10;99.90;;;;;;5003343;28;20410;-74
2022/11/14 16:04:23;;;;;;;;;;;9.00;99.90;;;;;;5002251;28;21033;-71
2022/11/14 16:07:11;;;;;;;;;;;9.00;99.90;;;;;;5008654;28;19936;-72
2022/11/14 16:09:57;;;;;;;;;;;9.10;99.90;;;;;;5006670;28;19932;-73
2022/11/14 16:12:42;;;;;;;;;;;9.10;99.90;;;;;;5003294;28;20434;-73
2022/11/14 16:15:28;;;;;;;;;;;9.10;99.90;;;;;;5005557;28;19944;-73
2022/11/14 16:18:15;;;;;;;;;;;9.10;99.90;;;;;;5003044;28;20011;-73
2022/11/14 16:21:00;;;;;;;;;;;9.10;99.90;;;;;;4997116;28;19944;-73
2022/11/14 16:23:48;;;;;;;;;;;9.10;99.90;;;;;;5002395;28;19933;-75
2022/11/14 16:26:34;;;;;;;;;;;9.10;99.90;;;;;;5007359;28;20303;-73
2022/11/14 16:29:20;;;;;;;;;;;9.00;99.90;;;;;;5003266;28;19937;-74
2022/11/14 16:32:05;;;;;;;;;;;9.00;99.90;;;;;;4998143;28;19942;-73
2022/11/14 16:34:50;;;;;;;;;;;9.10;99.90;;;;;;5004607;28;20067;-72
2022/11/14 16:37:35;;;;;;;;;;;9.10;99.90;;;;;;4994917;28;19933;-73
2022/11/14 16:40:24;;;;;;;;;;;9.10;99.90;;;;;;4998210;28;19940;-72
2022/11/14 16:43:11;;;;;;;;;;;9.10;99.90;;;;;;5000553;28;19932;-73
2022/11/14 16:45:57;;;;;;;;;;;9.10;99.90;;;;;;5003656;28;20410;-73